Time;durP1;ratioP1;P1;durP2;ratioP2;P2;SDS_P1;SDS_P2;PMS_P1;PMS_P2;Temp;Humidity;BMP_temperature;BMP_pressure;BME280_temperature;BME280_humidity;BME280_pressure;Samples;Min_cycle;Max_cycle;Signal;HPM_P1;HPM_P2
2021/07/06 00:01:50;;;;;;;14.83;12.07;;;;;;;20.49;59.87;98567.85;2249397;79;21168;-79
2021/07/06 00:04:59;;;;;;;19.25;11.43;;;;;;;20.40;59.79;98573.91;2249339;79;21327;-78
2021/07/06 00:07:53;;;;;;;15.70;10.70;;;;;;;20.31;59.92;98576.36;2248042;79;21023;-78
2021/07/06 00:10:54;;;;;;;14.78;12.43;;;;;;;20.24;60.23;98584.09;2249571;79;20908;-78
2021/07/06 00:13:55;;;;;;;26.97;11.90;;;;;;;20.12;60.34;98580.05;2265060;77;20977;-78
2021/07/06 00:16:56;;;;;;;17.77;11.18;;;;;;;20.01;60.68;98583.02;2281567;78;20946;-78
2021/07/06 00:19:57;;;;;;;18.05;12.73;;;;;;;19.90;60.91;98586.88;2281676;78;20931;-78
2021/07/06 00:22:58;;;;;;;17.15;12.43;;;;;;;19.80;61.33;98589.38;2281567;78;20917;-78
2021/07/06 00:25:59;;;;;;;13.98;12.63;;;;;;;19.65;61.39;98593.34;2281501;78;20938;-78
2021/07/06 00:29:00;;;;;;;14.07;11.90;;;;;;;19.46;61.79;98586.34;2281577;78;20875;-78
2021/07/06 00:32:01;;;;;;;14.78;12.28;;;;;;;19.32;62.22;98588.50;2281572;78;20910;-79
2021/07/06 00:35:02;;;;;;;15.25;12.93;;;;;;;19.21;62.52;98587.92;2281555;78;20935;-78
2021/07/06 00:38:03;;;;;;;16.10;12.58;;;;;;;19.14;62.91;98591.64;2281253;78;20984;-78
2021/07/06 00:41:04;;;;;;;14.93;12.55;;;;;;;19.09;63.16;98589.98;2281677;78;20976;-79
2021/07/06 00:44:05;;;;;;;15.93;12.13;;;;;;;19.04;63.30;98594.95;2281589;78;20958;-79
2021/07/06 00:47:06;;;;;;;14.53;12.15;;;;;;;18.96;63.66;98600.44;2281699;78;21329;-78
2021/07/06 00:50:07;;;;;;;20.20;12.95;;;;;;;18.90;63.71;98603.24;2281732;78;20918;-79
2021/07/06 00:53:07;;;;;;;23.57;13.75;;;;;;;18.86;63.95;98600.27;2281619;78;20883;-79
2021/07/06 00:56:08;;;;;;;16.37;12.60;;;;;;;18.80;64.06;98607.48;2281736;78;20918;-79
2021/07/06 00:59:09;;;;;;;16.32;12.93;;;;;;;18.77;64.27;98606.66;2281636;78;20969;-79
2021/07/06 01:02:10;;;;;;;13.45;12.05;;;;;;;18.75;64.37;98611.56;2281801;78;20962;-78
2021/07/06 01:05:11;;;;;;;16.25;13.38;;;;;;;18.68;64.63;98613.94;2281808;78;20929;-79
2021/07/06 01:08:12;;;;;;;16.87;13.03;;;;;;;18.56;64.85;98608.47;2281607;78;21005;-78
2021/07/06 01:11:13;;;;;;;14.50;13.00;;;;;;;18.45;65.18;98611.81;2281672;78;20871;-79
2021/07/06 01:14:15;;;;;;;14.33;12.45;;;;;;;18.42;65.39;98615.40;2264355;78;20988;-80
2021/07/06 01:17:16;;;;;;;19.82;13.15;;;;;;;18.40;65.49;98611.92;2249494;79;21316;-78
2021/07/06 01:20:19;;;;;;;15.18;13.05;;;;;;;18.33;65.68;98618.70;2249373;79;20939;-79
2021/07/06 01:23:21;;;;;;;14.00;12.55;;;;;;;18.21;65.92;98614.57;2249619;79;21352;-79
2021/07/06 01:26:24;;;;;;;18.32;13.40;;;;;;;18.11;66.30;98617.84;2249580;79;20973;-78
2021/07/06 01:29:25;;;;;;;14.55;13.00;;;;;;;18.03;66.53;98627.70;2249543;79;20973;-79
2021/07/06 01:32:26;;;;;;;15.28;13.03;;;;;;;17.94;66.84;98623.06;2249562;79;20865;-78
2021/07/06 01:35:27;;;;;;;15.55;13.93;;;;;;;17.89;67.02;98627.58;2249548;79;20877;-79
2021/07/06 01:38:28;;;;;;;16.42;14.05;;;;;;;17.84;67.11;98625.03;2249157;79;20951;-79
2021/07/06 01:41:29;;;;;;;17.77;13.65;;;;;;;17.82;67.22;98626.83;2249545;79;21315;-79
2021/07/06 01:44:30;;;;;;;15.30;13.83;;;;;;;17.81;67.34;98626.41;2249653;79;20880;-79
2021/07/06 01:47:31;;;;;;;17.45;14.18;;;;;;;17.72;67.55;98622.64;2249540;79;20965;-78
2021/07/06 01:50:32;;;;;;;177.97;28.83;;;;;;;17.63;67.89;98626.30;2249478;79;20901;-78
2021/07/06 01:53:33;;;;;;;16.60;13.78;;;;;;;17.58;68.01;98628.61;2249680;79;20901;-78
2021/07/06 01:56:34;;;;;;;21.93;14.63;;;;;;;17.60;68.18;98633.41;2249500;79;20904;-79
2021/07/06 01:59:34;;;;;;;21.50;15.15;;;;;;;17.57;68.29;98635.66;2249486;79;21327;-79
2021/07/06 02:02:35;;;;;;;24.67;14.95;;;;;;;17.51;68.29;98637.97;2249714;79;20905;-78
2021/07/06 02:05:38;;;;;;;25.12;15.32;;;;;;;17.47;68.59;98634.97;2249716;79;20948;-79
2021/07/06 02:08:39;;;;;;;22.62;14.90;;;;;;;17.49;68.93;98640.22;2249291;79;21011;-78
2021/07/06 02:11:40;;;;;;;53.83;17.27;;;;;;;17.44;68.76;98642.94;2249602;79;20904;-79
2021/07/06 02:14:41;;;;;;;25.15;16.73;;;;;;;17.36;69.11;98637.39;2268036;78;20977;-78
2021/07/06 02:17:42;;;;;;;22.45;16.00;;;;;;;17.30;69.29;98635.70;2281793;78;20933;-78
2021/07/06 02:20:43;;;;;;;24.07;15.32;;;;;;;17.21;69.24;98641.14;2281649;78;21258;-78
2021/07/06 02:23:46;;;;;;;20.05;14.70;;;;;;;17.16;69.30;98637.27;2281726;78;20899;-79
2021/07/06 02:26:46;;;;;;;26.45;15.48;;;;;;;17.12;69.59;98639.99;2281552;78;20971;-79
2021/07/06 02:29:47;;;;;;;19.98;15.00;;;;;;;17.04;69.58;98642.77;2281790;78;20891;-79
2021/07/06 02:32:48;;;;;;;15.80;13.30;;;;;;;16.98;69.77;98650.78;2281882;78;20899;-79
2021/07/06 02:35:49;;;;;;;21.90;13.25;;;;;;;16.96;69.83;98651.70;2281636;78;20951;-79
2021/07/06 02:38:50;;;;;;;30.40;15.70;;;;;;;16.92;69.96;98650.88;2281810;78;20966;-79
2021/07/06 02:41:51;;;;;;;18.92;14.68;;;;;;;16.90;70.16;98651.80;2281846;78;20915;-79
2021/07/06 02:44:52;;;;;;;63.60;18.57;;;;;;;16.83;70.02;98651.91;2282108;78;21251;-79
2021/07/06 02:47:52;;;;;;;21.45;14.80;;;;;;;16.81;70.37;98647.55;2281736;78;21313;-79
2021/07/06 02:50:53;;;;;;;21.02;15.50;;;;;;;16.86;70.36;98650.98;2281893;78;20955;-79
2021/07/06 02:53:54;;;;;;;18.17;15.58;;;;;;;16.95;70.40;98653.91;2281835;78;21293;-80
2021/07/06 02:56:55;;;;;;;57.48;18.10;;;;;;;16.95;70.21;98648.19;2281372;78;20966;-77
2021/07/06 02:59:56;;;;;;;21.17;15.55;;;;;;;16.94;70.30;98657.00;2281362;78;20961;-79
2021/07/06 03:02:57;;;;;;;21.65;15.95;;;;;;;16.96;70.47;98651.70;2281813;78;20926;-79
2021/07/06 03:05:58;;;;;;;25.20;15.50;;;;;;;16.96;70.44;98653.89;2281565;78;20903;-79
2021/07/06 03:09:00;;;;;;;21.55;14.63;;;;;;;16.94;70.49;98654.36;2273632;78;20964;-79
2021/07/06 03:12:01;;;;;;;15.70;14.13;;;;;;;16.99;70.48;98652.97;2281792;78;20906;-80
2021/07/06 03:15:02;;;;;;;17.40;14.45;;;;;;;16.98;70.34;98656.50;2281500;78;20954;-80
2021/07/06 03:18:04;;;;;;;18.52;14.93;;;;;;;16.94;70.38;98657.00;2281847;78;20909;-80
2021/07/06 03:21:05;;;;;;;23.77;15.98;;;;;;;17.09;73.67;98661.14;2282002;78;20907;-80
2021/07/06 03:24:06;;;;;;;19.30;15.30;;;;;;;18.63;72.87;98660.31;2282164;78;20931;-81
2021/07/06 03:27:07;;;;;;;19.37;14.25;;;;;;;19.87;69.72;98657.16;2282180;78;21305;-79
2021/07/06 03:30:08;;;;;;;123.20;22.13;;;;;;;20.65;66.82;98647.31;2282275;78;20955;-80
2021/07/06 03:33:09;;;;;;;23.00;16.50;;;;;;;20.65;64.83;98652.63;2281989;78;20951;-80
2021/07/06 03:36:10;;;;;;;22.93;15.45;;;;;;;20.90;62.81;98661.14;2281793;78;20914;-80
2021/07/06 03:39:11;;;;;;;22.93;14.70;;;;;;;20.90;61.89;98655.38;2281960;78;21313;-79
2021/07/06 03:42:12;;;;;;;30.27;15.10;;;;;;;20.87;61.40;98656.81;2281633;78;20933;-80
2021/07/06 03:45:13;;;;;;;22.00;15.63;;;;;;;20.81;61.32;98666.30;2281590;78;20970;-80
2021/07/06 03:48:14;;;;;;;20.95;14.13;;;;;;;20.82;61.07;98663.18;2281496;78;20906;-81
2021/07/06 03:51:15;;;;;;;25.15;15.98;;;;;;;20.82;61.07;98663.18;2282181;78;20894;-82
2021/07/06 03:54:16;;;;;;;22.13;15.35;;;;;;;20.78;61.10;98666.81;2281412;78;21306;-79
2021/07/06 03:57:28;;;;;;;202.25;26.73;;;;;;;20.76;61.29;98666.87;2280716;78;21302;-80
2021/07/06 04:00:20;;;;;;;22.93;14.45;;;;;;;20.75;61.44;98671.77;2279159;78;21305;-80
2021/07/06 04:03:25;;;;;;;65.00;19.30;;;;;;;20.82;61.09;98665.38;2280989;78;21333;-79
2021/07/06 04:06:26;;;;;;;128.87;26.02;;;;;;;20.93;60.99;98680.48;2277367;78;20986;-78
2021/07/06 04:09:27;;;;;;;55.28;18.92;;;;;;;21.03;61.05;98681.05;2250285;79;20891;-79
2021/07/06 04:12:29;;;;;;;28.85;15.35;;;;;;;21.16;61.08;98673.55;2248167;79;21365;-80
2021/07/06 04:15:30;;;;;;;23.38;15.23;;;;;;;21.36;60.76;98680.41;2249809;78;20984;-79
2021/07/06 04:18:31;;;;;;;20.43;13.75;;;;;;;21.62;60.19;98681.70;2248696;79;20916;-79
2021/07/06 04:21:32;;;;;;;17.27;14.55;;;;;;;21.82;59.64;98685.01;2249511;79;20960;-80
2021/07/06 04:24:33;;;;;;;22.82;14.50;;;;;;;22.01;59.50;98683.01;2249002;79;20916;-81
2021/07/06 04:27:34;;;;;;;21.80;15.80;;;;;;;22.21;59.29;98686.69;2249450;79;20920;-80
2021/07/06 04:30:35;;;;;;;88.65;20.35;;;;;;;22.41;59.01;98686.39;2249336;79;20953;-81
2021/07/06 04:33:36;;;;;;;20.10;15.60;;;;;;;22.51;58.81;98683.32;2249453;79;20932;-81
2021/07/06 04:36:37;;;;;;;28.00;18.48;;;;;;;22.72;58.78;98683.44;2249370;79;20932;-80
2021/07/06 04:39:38;;;;;;;18.98;15.98;;;;;;;22.96;58.47;98689.59;2249488;79;20929;-81
2021/07/06 04:42:39;;;;;;;32.25;19.37;;;;;;;23.20;58.08;98691.25;2250382;79;20980;-82
2021/07/06 04:45:40;;;;;;;47.40;19.92;;;;;;;23.25;57.91;98685.27;2250774;79;21308;-81
2021/07/06 04:48:40;;;;;;;17.15;15.45;;;;;;;23.31;57.74;98685.02;2249615;79;20956;-81
2021/07/06 04:51:42;;;;;;;20.55;16.02;;;;;;;23.24;56.63;98688.00;2249430;79;20917;-84
2021/07/06 04:54:43;;;;;;;17.05;15.35;;;;;;;22.86;56.98;98685.98;2249301;79;21301;-81
2021/07/06 04:57:44;;;;;;;20.08;16.20;;;;;;;22.68;57.75;98685.35;2248946;79;20992;-80
2021/07/06 05:00:45;;;;;;;22.45;16.70;;;;;;;22.75;58.30;98684.64;2249309;79;21320;-80
2021/07/06 05:03:48;;;;;;;19.27;16.45;;;;;;;23.26;58.25;98688.33;2249043;79;20901;-81
2021/07/06 05:06:49;;;;;;;18.07;15.98;;;;;;;23.18;56.52;98694.44;2249325;79;21358;-79
2021/07/06 05:09:50;;;;;;;20.68;14.87;;;;;;;23.24;57.49;98690.19;2249180;79;21260;-80
2021/07/06 05:12:53;;;;;;;23.55;16.48;;;;;;;23.45;57.52;98688.45;2249200;79;20935;-79
2021/07/06 05:15:54;;;;;;;;;;;;;;;23.33;56.37;98688.48;2276143;77;20914;-80
2021/07/06 05:18:55;;;;;;;16.62;14.90;;;;;;;22.88;56.74;98697.89;2281962;78;20104;-81
2021/07/06 05:21:56;;;;;;;24.00;14.95;;;;;;;22.68;58.02;98701.78;2281808;78;21041;-81
2021/07/06 05:24:57;;;;;;;21.73;15.68;;;;;;;23.17;58.21;98702.90;2281601;78;21282;-82
2021/07/06 05:27:58;;;;;;;61.28;42.00;;;;;;;23.49;58.29;98704.23;2281568;78;20954;-82
2021/07/06 05:30:59;;;;;;;23.25;15.23;;;;;;;23.87;57.51;98701.74;2280931;78;21302;-81
2021/07/06 05:34:00;;;;;;;39.25;15.70;;;;;;;24.31;56.38;98702.94;2282402;78;20978;-82
2021/07/06 05:37:01;;;;;;;14.70;13.32;;;;;;;24.26;55.00;98710.22;2280802;78;21400;-80
2021/07/06 05:40:02;;;;;;;14.45;12.98;;;;;;;23.99;54.77;98713.20;2281561;78;20925;-80
2021/07/06 05:43:03;;;;;;;20.32;14.87;;;;;;;23.82;55.05;98710.41;2281679;78;20953;-81
2021/07/06 05:46:04;;;;;;;20.52;13.35;;;;;;;24.03;56.98;98707.26;2281508;78;21281;-80
2021/07/06 05:49:05;;;;;;;19.12;13.45;;;;;;;24.32;54.96;98707.34;2281408;78;21297;-81
2021/07/06 05:52:06;;;;;;;26.30;14.47;;;;;;;24.71;55.06;98709.47;2281696;78;21333;-79
2021/07/06 05:55:07;;;;;;;17.02;14.13;;;;;;;25.04;54.41;98709.69;2280920;78;21338;-80
2021/07/06 05:58:08;;;;;;;60.85;50.28;;;;;;;24.94;52.97;98713.70;2281146;78;20978;-80
2021/07/06 06:01:09;;;;;;;320.82;225.78;;;;;;;24.97;54.82;98720.70;2281112;78;21612;-80
2021/07/06 06:04:11;;;;;;;184.13;119.05;;;;;;;25.23;54.30;98712.81;2281226;78;20962;-80
2021/07/06 06:07:12;;;;;;;14.38;12.98;;;;;;;25.38;54.12;98706.70;2281032;78;21033;-82
2021/07/06 06:10:13;;;;;;;53.92;24.80;;;;;;;25.18;51.81;98710.84;2281027;78;20965;-81
2021/07/06 06:13:14;;;;;;;14.40;11.57;;;;;;;25.43;53.73;98714.02;2281375;78;20886;-80
2021/07/06 06:16:15;;;;;;;13.25;11.80;;;;;;;25.95;52.87;98714.03;2289033;77;21331;-82
2021/07/06 06:19:16;;;;;;;13.13;11.75;;;;;;;26.16;51.05;98714.27;2291289;78;20943;-81
2021/07/06 06:22:17;;;;;;;20.32;13.40;;;;;;;26.10;51.31;98710.58;2290980;78;20968;-82
2021/07/06 06:25:18;;;;;;;18.30;13.35;;;;;;;26.45;52.20;98712.72;2290911;78;20885;-80
2021/07/06 06:28:19;;;;;;;358.98;312.80;;;;;;;26.88;51.54;98717.06;2291032;78;20968;-81
2021/07/06 06:31:20;;;;;;;12.45;11.15;;;;;;;27.11;50.77;98722.01;2291577;78;20869;-81
2021/07/06 06:34:21;;;;;;;13.93;11.85;;;;;;;27.15;48.46;98724.03;2290949;78;20968;-80
2021/07/06 06:37:22;;;;;;;12.63;11.53;;;;;;;27.26;49.14;98735.86;2290834;78;20987;-82
2021/07/06 06:40:23;;;;;;;11.65;10.60;;;;;;;27.20;46.85;98728.66;2290998;78;20936;-80
2021/07/06 06:43:24;;;;;;;11.80;10.58;;;;;;;26.78;47.21;98725.19;2291223;78;20989;-82
2021/07/06 06:46:26;;;;;;;11.10;10.00;;;;;;;26.58;47.86;98725.82;2291308;78;20972;-80
2021/07/06 06:49:27;;;;;;;17.73;11.65;;;;;;;26.50;48.20;98725.38;2291103;78;20980;-80
2021/07/06 06:52:28;;;;;;;18.00;10.53;;;;;;;26.69;49.74;98727.05;2290709;78;20921;-78
2021/07/06 06:55:29;;;;;;;25.48;17.50;;;;;;;27.16;47.60;98729.30;2291433;78;20920;-80
2021/07/06 06:58:30;;;;;;;302.52;255.60;;;;;;;27.27;47.76;98734.05;2291055;78;20995;-82
2021/07/06 07:01:31;;;;;;;592.53;472.33;;;;;;;27.61;47.26;98735.65;2291594;78;21521;-81
2021/07/06 07:04:32;;;;;;;90.90;60.23;;;;;;;27.81;47.04;98734.02;2291116;78;20992;-82
2021/07/06 07:07:34;;;;;;;19.32;10.75;;;;;;;27.68;45.36;98737.48;2291383;78;21308;-82
2021/07/06 07:10:37;;;;;;;9.28;8.50;;;;;;;27.71;45.57;98739.98;2291735;78;21280;-83
2021/07/06 07:13:38;;;;;;;15.32;9.30;;;;;;;27.53;45.49;98740.56;2291130;78;20916;-81
2021/07/06 07:16:39;;;;;;;12.85;9.45;;;;;;;27.34;45.74;98742.59;2282145;78;21400;-82
2021/07/06 07:19:40;;;;;;;9.10;7.75;;;;;;;27.44;44.73;98739.29;2280858;78;20981;-87
2021/07/06 07:22:41;;;;;;;12.28;8.85;;;;;;;27.76;45.60;98738.80;2280815;78;21448;-80
2021/07/06 07:25:42;;;;;;;9.05;7.42;;;;;;;27.92;45.17;98737.39;2280757;78;20962;-80
2021/07/06 07:28:44;;;;;;;96.80;67.12;;;;;;;28.25;44.23;98736.32;2280945;77;21373;-79
2021/07/06 07:31:44;;;;;;;9.80;8.70;;;;;;;28.41;44.91;98743.33;2281158;78;20953;-80
2021/07/06 07:34:45;;;;;;;9.00;8.08;;;;;;;28.40;43.71;98748.79;2281726;77;20922;-83
2021/07/06 07:37:46;;;;;;;10.20;8.85;;;;;;;28.24;42.38;98751.56;2281512;78;21022;-81
2021/07/06 07:40:47;;;;;;;9.60;7.80;;;;;;;28.28;43.79;98746.39;2281545;77;20942;-80
2021/07/06 07:43:54;;;;;;;17.48;8.78;;;;;;;28.44;42.32;98748.50;2281691;77;21259;-79
2021/07/06 07:46:54;;;;;;;185.40;137.10;;;;;;;28.41;43.53;98740.64;2281172;78;20962;-80
2021/07/06 07:49:56;;;;;;;53.33;39.15;;;;;;;28.81;42.78;98742.17;2260235;78;21095;-80
2021/07/06 07:52:57;;;;;;;9.13;8.23;;;;;;;29.12;42.54;98739.27;2281629;78;20883;-80
2021/07/06 07:55:58;;;;;;;9.98;9.05;;;;;;;29.40;41.38;98744.16;2280379;78;20958;-81
2021/07/06 07:58:59;;;;;;;9.45;8.60;;;;;;;29.19;41.97;98754.50;2280670;78;21002;-77
2021/07/06 08:02:00;;;;;;;7.62;6.95;;;;;;;28.96;41.35;98750.63;2281177;78;20953;-78
2021/07/06 08:05:01;;;;;;;10.40;6.42;;;;;;;28.83;40.52;98753.23;2281656;77;20925;-81
2021/07/06 08:08:02;;;;;;;19.02;12.37;;;;;;;28.34;43.36;98755.40;2281302;77;21033;-81
2021/07/06 08:11:03;;;;;;;8.88;7.25;;;;;;;28.50;43.63;98754.83;2281246;78;20974;-81
2021/07/06 08:14:05;;;;;;;14.65;8.78;;;;;;;29.08;42.90;98751.66;2281262;77;20922;-81
2021/07/06 08:17:06;;;;;;;34.50;25.77;;;;;;;29.53;42.27;98742.92;2251404;77;20983;-83
2021/07/06 08:20:07;;;;;;;9.75;7.95;;;;;;;29.59;40.87;98754.12;2249244;79;20936;-83
2021/07/06 08:23:08;;;;;;;8.73;6.58;;;;;;;29.27;41.42;98752.66;2249252;79;20968;-80
2021/07/06 08:26:09;;;;;;;15.28;6.40;;;;;;;29.43;40.76;98757.44;2249382;79;20885;-83
2021/07/06 08:29:10;;;;;;;13.58;7.03;;;;;;;29.27;40.61;98756.69;2249479;79;21339;-82
2021/07/06 08:32:11;;;;;;;11.00;5.95;;;;;;;29.53;40.80;98746.47;2249096;79;20915;-82
2021/07/06 08:35:13;;;;;;;17.20;6.65;;;;;;;29.82;39.43;98749.02;2248580;79;21343;-80
2021/07/06 08:38:17;;;;;;;6.45;5.85;;;;;;;30.08;38.61;98750.81;2248349;79;20979;-80
2021/07/06 08:41:18;;;;;;;7.05;5.80;;;;;;;29.64;36.81;98749.79;2249096;79;20989;-79
2021/07/06 08:44:20;;;;;;;4.97;4.58;;;;;;;29.13;37.44;98746.36;2249149;79;20909;-83
2021/07/06 08:47:21;;;;;;;10.58;5.37;;;;;;;28.85;36.83;98751.31;2249448;79;20950;-83
2021/07/06 08:50:25;;;;;;;8.00;5.60;;;;;;;28.96;39.54;98746.59;2249148;79;20944;-83
2021/07/06 08:53:26;;;;;;;10.18;5.62;;;;;;;29.64;39.22;98738.55;2248658;79;20949;-81
2021/07/06 08:56:26;;;;;;;8.85;5.90;;;;;;;30.04;38.34;98746.61;2248988;79;20913;-80
2021/07/06 08:59:27;;;;;;;8.58;5.05;;;;;;;30.26;37.83;98741.45;2248523;79;20951;-80
2021/07/06 09:02:28;;;;;;;5.08;4.58;;;;;;;30.45;37.53;98740.19;2249375;79;20917;-81
2021/07/06 09:05:29;;;;;;;3.72;3.42;;;;;;;30.49;36.58;98744.39;2249224;79;20981;-84
2021/07/06 09:08:30;;;;;;;4.10;3.80;;;;;;;30.10;34.57;98740.80;2249220;79;21007;-81
2021/07/06 09:11:32;;;;;;;7.47;4.10;;;;;;;30.11;36.72;98738.49;2249240;79;20881;-81
2021/07/06 09:14:33;;;;;;;4.95;4.22;;;;;;;30.45;36.41;98733.45;2249274;79;20912;-80
2021/07/06 09:17:34;;;;;;;5.20;4.10;;;;;;;30.65;35.66;98736.48;2281052;77;20966;-82
2021/07/06 09:20:35;;;;;;;7.22;5.08;;;;;;;30.58;35.17;98736.52;2281599;78;20918;-81
2021/07/06 09:23:38;;;;;;;4.83;4.33;;;;;;;30.52;35.43;98739.64;2281996;78;20894;-81
2021/07/06 09:26:38;;;;;;;4.25;3.95;;;;;;;30.24;35.30;98743.39;2281724;78;21380;-83
2021/07/06 09:29:40;;;;;;;5.22;4.33;;;;;;;30.00;36.18;98742.38;2282074;77;20955;-82
2021/07/06 09:32:41;;;;;;;3.52;3.22;;;;;;;30.30;35.90;98744.80;2281391;78;20915;-81
2021/07/06 09:35:45;;;;;;;23.92;5.53;;;;;;;30.52;34.61;98737.44;2280836;77;21009;-81
2021/07/06 09:38:46;;;;;;;8.38;4.05;;;;;;;30.63;35.72;98734.88;2281374;77;21020;-79
2021/07/06 09:41:47;;;;;;;7.87;4.20;;;;;;;30.65;33.96;98736.97;2281864;77;20883;-82
2021/07/06 09:44:48;;;;;;;5.92;3.98;;;;;;;30.82;35.34;98732.56;2281098;77;20946;-81
2021/07/06 09:47:49;;;;;;;11.65;3.87;;;;;;;31.03;34.20;98736.39;2281492;78;21389;-82
2021/07/06 09:50:50;;;;;;;7.70;3.92;;;;;;;31.03;33.29;98725.61;2280908;78;20914;-82
2021/07/06 09:53:51;;;;;;;98.12;63.73;;;;;;;30.90;32.87;98728.83;2281149;77;20914;-79
2021/07/06 09:56:56;;;;;;;128.18;97.67;;;;;;;30.89;33.01;98725.76;2281216;78;20914;-80
2021/07/06 09:59:57;;;;;;;3.33;3.02;;;;;;;30.97;32.91;98732.80;2281379;78;20972;-81
2021/07/06 10:02:58;;;;;;;7.47;3.90;;;;;;;31.14;30.97;98731.55;2281391;78;20926;-82
2021/07/06 10:05:59;;;;;;;2.50;2.35;;;;;;;30.93;33.56;98725.91;2280757;77;20962;-82
2021/07/06 10:08:59;;;;;;;3.70;2.85;;;;;;;31.26;31.14;98723.97;2281399;78;20970;-81
2021/07/06 10:12:00;;;;;;;2.75;2.55;;;;;;;31.26;33.04;98728.50;2281836;77;21130;-81
2021/07/06 10:15:01;;;;;;;4.33;2.67;;;;;;;31.43;30.53;98729.93;2279174;78;20926;-79
2021/07/06 10:18:03;;;;;;;4.22;3.10;;;;;;;30.95;30.56;98724.45;2249509;79;20984;-79
2021/07/06 10:21:03;;;;;;;3.45;3.10;;;;;;;30.78;30.85;98721.64;2249567;79;21012;-81
2021/07/06 10:24:04;;;;;;;3.00;2.80;;;;;;;30.90;32.94;98716.70;2248691;79;20881;-81
2021/07/06 10:27:07;;;;;;;13.95;10.55;;;;;;;31.21;31.20;98706.37;2248505;79;20911;-80
2021/07/06 10:30:08;;;;;;;3.67;3.35;;;;;;;31.25;31.74;98711.95;2248895;79;20920;-82
2021/07/06 10:33:10;;;;;;;14.05;8.88;;;;;;;31.18;30.62;98713.34;2249188;79;20923;-79
2021/07/06 10:36:16;;;;;;;11.28;8.15;;;;;;;31.30;32.41;98697.14;2249415;79;20888;-81
2021/07/06 10:39:18;;;;;;;108.75;72.03;;;;;;;31.61;32.22;98705.61;2248805;79;20987;-82
2021/07/06 10:42:19;;;;;;;201.58;151.57;;;;;;;31.70;31.81;98704.08;2249184;79;20980;-82
2021/07/06 10:45:23;;;;;;;27.37;20.43;;;;;;;31.89;31.82;98704.38;2249424;79;21074;-81
2021/07/06 10:48:24;;;;;;;5.28;3.50;;;;;;;31.69;30.66;98701.83;2249122;79;21300;-81
2021/07/06 10:51:27;;;;;;;72.32;10.58;;;;;;;31.81;31.28;98708.16;2248968;79;20972;-82
2021/07/06 10:54:28;;;;;;;10.55;4.37;;;;;;;31.97;31.29;98701.94;2249340;79;21003;-79
2021/07/06 10:57:29;;;;;;;4.40;3.20;;;;;;;32.06;30.89;98697.17;2249205;79;20908;-82
2021/07/06 11:00:30;;;;;;;5.33;3.17;;;;;;;32.05;30.64;98695.45;2248141;79;20940;-82
2021/07/06 11:03:31;;;;;;;9.48;3.35;;;;;;;32.01;30.37;98691.27;2248774;79;20953;-80
2021/07/06 11:06:32;;;;;;;6.30;3.47;;;;;;;32.18;30.30;98688.13;2249013;79;20944;-82
2021/07/06 11:09:36;;;;;;;3.70;3.37;;;;;;;32.28;30.18;98693.20;2249198;79;21051;-82
2021/07/06 11:12:38;;;;;;;4.70;2.87;;;;;;;32.27;29.23;98692.84;2248810;79;22293;-80
2021/07/06 11:15:39;;;;;;;4.90;2.83;;;;;;;32.19;29.81;98695.25;2257383;77;20944;-81
2021/07/06 11:18:42;;;;;;;7.95;4.08;;;;;;;31.61;29.96;98694.33;2290785;78;21014;-80
2021/07/06 11:21:42;;;;;;;66.55;59.55;;;;;;;31.60;30.94;98687.21;2290948;78;20960;-81
2021/07/06 11:24:43;;;;;;;18.98;13.28;;;;;;;31.79;30.81;98687.17;2291264;78;20901;-81
2021/07/06 11:27:47;;;;;;;46.58;32.28;;;;;;;31.54;31.25;98693.56;2291546;78;20910;-78
2021/07/06 11:30:49;;;;;;;5.60;3.80;;;;;;;31.55;31.10;98689.40;2291330;78;20964;-82
2021/07/06 11:33:50;;;;;;;4.08;3.42;;;;;;;31.15;31.97;98692.87;2291477;78;20951;-82
2021/07/06 11:36:51;;;;;;;11.50;3.67;;;;;;;31.17;32.18;98688.70;2291721;78;21169;-80
2021/07/06 11:39:52;;;;;;;8.93;3.35;;;;;;;31.40;32.25;98682.97;2291135;78;20964;-81
2021/07/06 11:42:53;;;;;;;4.35;2.70;;;;;;;31.63;31.94;98679.37;2290909;78;20948;-83
2021/07/06 11:45:54;;;;;;;4.10;2.60;;;;;;;31.66;30.53;98677.30;2290731;78;20916;-80
2021/07/06 11:48:55;;;;;;;12.68;10.90;;;;;;;31.59;31.56;98677.88;2291330;78;20921;-80
2021/07/06 11:51:56;;;;;;;8.85;5.10;;;;;;;31.60;30.90;98671.52;2291698;78;20945;-80
2021/07/06 11:54:58;;;;;;;4.90;4.40;;;;;;;31.22;31.49;98667.69;2291387;78;20889;-84
2021/07/06 11:57:58;;;;;;;3.40;3.10;;;;;;;31.26;31.76;98663.78;2290798;78;20928;-81
2021/07/06 12:01:00;;;;;;;2.90;2.70;;;;;;;31.45;31.24;98657.36;2291258;78;20936;-81
2021/07/06 12:04:01;;;;;;;2.95;2.75;;;;;;;31.72;30.56;98655.75;2291302;78;21312;-80
2021/07/06 12:07:02;;;;;;;6.90;2.50;;;;;;;31.67;30.75;98648.47;2290656;78;20956;-81
2021/07/06 12:10:03;;;;;;;12.95;11.08;;;;;;;31.65;30.88;98636.45;2291282;78;21009;-80
2021/07/06 12:13:04;;;;;;;61.95;32.80;;;;;;;31.65;30.56;98632.89;2290897;78;20912;-80
2021/07/06 12:16:07;;;;;;;2.95;2.75;;;;;;;31.81;30.98;98634.80;2288201;78;20962;-82
2021/07/06 12:19:09;;;;;;;9.13;3.90;;;;;;;31.88;30.52;98632.48;2280796;78;20933;-81
2021/07/06 12:22:10;;;;;;;5.10;3.10;;;;;;;31.83;31.10;98626.58;2280431;77;20993;-80
2021/07/06 12:25:11;;;;;;;6.17;3.70;;;;;;;31.88;30.63;98618.49;2280983;77;20982;-81
2021/07/06 12:28:12;;;;;;;6.85;3.95;;;;;;;31.92;31.61;98622.67;2280661;78;20887;-82
2021/07/06 12:31:14;;;;;;;2.77;2.45;;;;;;;32.20;31.30;98611.05;2280665;78;20952;-80
2021/07/06 12:34:15;;;;;;;13.60;3.90;;;;;;;32.03;30.52;98617.77;2280702;78;21425;-81
2021/07/06 12:37:16;;;;;;;5.12;3.40;;;;;;;32.06;30.30;98609.42;2280851;78;21589;-80
2021/07/06 12:40:18;;;;;;;28.40;20.88;;;;;;;31.71;30.35;98614.05;2280612;77;20978;-81
2021/07/06 12:43:21;;;;;;;4.10;3.80;;;;;;;31.67;30.28;98614.26;2281484;78;20978;-81
2021/07/06 12:46:21;;;;;;;3.27;3.00;;;;;;;32.00;29.37;98622.06;2281568;77;20974;-80
2021/07/06 12:49:22;;;;;;;2.92;2.72;;;;;;;32.05;30.08;98613.59;2281544;77;20921;-82
2021/07/06 12:52:26;;;;;;;5.00;3.10;;;;;;;32.05;29.59;98605.00;2281627;78;20921;-80
2021/07/06 12:55:27;;;;;;;5.75;3.42;;;;;;;31.98;29.78;98610.52;2281380;77;20926;-79
2021/07/06 12:58:29;;;;;;;9.60;3.85;;;;;;;31.92;30.40;98611.88;2280949;77;21337;-80
2021/07/06 13:01:30;;;;;;;11.33;3.67;;;;;;;31.97;30.14;98610.16;2281406;78;20997;-81
2021/07/06 13:04:31;;;;;;;6.60;3.05;;;;;;;32.00;30.08;98618.02;2281116;78;21102;-78
2021/07/06 13:07:32;;;;;;;37.40;25.27;;;;;;;32.33;29.60;98616.36;2280056;77;20914;-82
2021/07/06 13:10:34;;;;;;;22.10;19.87;;;;;;;32.76;29.45;98611.86;2279958;78;20977;-81
2021/07/06 13:13:35;;;;;;;94.00;84.13;;;;;;;32.88;28.82;98615.42;2279655;78;20918;-81
2021/07/06 13:16:36;;;;;;;42.70;38.50;;;;;;;33.27;28.76;98608.55;2268861;77;20975;-78
2021/07/06 13:19:37;;;;;;;158.45;142.28;;;;;;;33.27;28.76;98608.55;2248461;79;20939;-79
2021/07/06 13:22:38;;;;;;;19.92;17.85;;;;;;;33.27;29.32;98613.95;2249007;79;20873;-79
2021/07/06 13:25:39;;;;;;;72.67;64.80;;;;;;;33.44;28.55;98606.64;2248755;79;20904;-79
2021/07/06 13:28:40;;;;;;;59.38;53.28;;;;;;;33.26;28.91;98598.71;2248189;79;20962;-79
2021/07/06 13:31:42;;;;;;;40.92;35.13;;;;;;;33.41;28.90;98601.49;2248819;79;20924;-77
2021/07/06 13:34:43;;;;;;;44.58;39.33;;;;;;;33.62;28.43;98594.73;2248980;79;20916;-79
2021/07/06 13:37:44;;;;;;;35.83;32.33;;;;;;;33.84;28.48;98599.19;2249153;79;20900;-79
2021/07/06 13:40:45;;;;;;;5.83;5.35;;;;;;;34.01;28.23;98589.59;2248991;79;20932;-78
2021/07/06 13:43:46;;;;;;;22.85;20.65;;;;;;;34.00;27.11;98590.58;2248892;79;20980;-78
2021/07/06 13:46:47;;;;;;;20.82;18.80;;;;;;;33.87;27.82;98590.80;2249310;79;20944;-77
2021/07/06 13:49:48;;;;;;;19.12;17.17;;;;;;;33.99;27.82;98584.80;2250052;79;20912;-81
2021/07/06 13:52:49;;;;;;;3.15;2.87;;;;;;;34.02;27.70;98584.03;2250303;79;20936;-81
2021/07/06 13:55:52;;;;;;;11.43;6.17;;;;;;;33.97;27.23;98578.17;2249763;79;20984;-79
2021/07/06 13:58:52;;;;;;;;;;;;;;;33.95;27.29;98579.30;2252381;79;20956;-79